createdAt,value
2023-01-19T00:01:27.192Z,14.48
2023-01-19T00:03:54.939Z,14.95
2023-01-19T00:06:24.053Z,14.05
2023-01-19T00:08:52.125Z,13.95
2023-01-19T00:11:20.374Z,12.88
2023-01-19T00:13:50.582Z,13.98
2023-01-19T00:16:18.835Z,13.30
2023-01-19T00:18:46.895Z,14.48
2023-01-19T00:21:15.846Z,13.55
2023-01-19T00:23:47.488Z,13.40
2023-01-19T00:26:17.287Z,15.25
2023-01-19T00:28:45.285Z,15.02
2023-01-19T00:31:13.124Z,15.23
2023-01-19T00:33:40.868Z,15.07
2023-01-19T00:36:09.093Z,15.55
2023-01-19T00:38:37.134Z,15.38
2023-01-19T00:41:06.420Z,14.77
2023-01-19T00:43:33.234Z,14.77
2023-01-19T00:46:01.044Z,14.18
2023-01-19T00:48:28.851Z,14.32
2023-01-19T00:50:56.649Z,15.00
2023-01-19T00:53:24.560Z,15.27
2023-01-19T00:55:52.430Z,15.55
2023-01-19T00:58:22.680Z,15.60
2023-01-19T01:00:50.545Z,14.65
2023-01-19T01:03:18.424Z,15.32
2023-01-19T01:05:46.284Z,14.98
2023-01-19T01:08:14.006Z,15.73
2023-01-19T01:10:41.765Z,15.93
2023-01-19T01:13:21.278Z,17.00
2023-01-19T01:15:52.045Z,15.77
2023-01-19T01:18:20.133Z,17.10
2023-01-19T01:20:48.269Z,16.45
2023-01-19T01:23:16.773Z,15.98
2023-01-19T01:25:44.559Z,17.10
2023-01-19T01:28:12.337Z,17.90
2023-01-19T01:30:41.106Z,16.92
2023-01-19T01:33:11.493Z,16.00
2023-01-19T01:35:39.698Z,15.80
2023-01-19T01:38:07.705Z,17.63
2023-01-19T01:40:35.499Z,17.83
2023-01-19T01:43:03.663Z,17.77
2023-01-19T01:45:32.999Z,17.35
2023-01-19T01:48:03.775Z,16.27
2023-01-19T01:50:35.192Z,18.20
2023-01-19T01:53:07.378Z,17.13
2023-01-19T01:55:37.684Z,17.73
2023-01-19T01:58:06.020Z,16.95
2023-01-19T02:00:53.908Z,17.45
2023-01-19T02:03:22.363Z,18.35
2023-01-19T02:05:52.169Z,17.98
2023-01-19T02:08:38.962Z,17.42
2023-01-19T02:11:24.266Z,18.00
2023-01-19T02:13:52.058Z,17.42
2023-01-19T02:16:19.995Z,16.48
2023-01-19T02:18:47.857Z,16.33
2023-01-19T02:21:20.106Z,16.88
2023-01-19T02:23:50.735Z,17.10
2023-01-19T02:26:20.394Z,15.90
2023-01-19T02:28:50.447Z,18.27
2023-01-19T02:31:18.696Z,18.08
2023-01-19T02:33:46.671Z,16.88
2023-01-19T02:36:16.509Z,18.80
2023-01-19T02:38:45.784Z,19.10
2023-01-19T02:41:17.680Z,18.95
2023-01-19T02:43:46.637Z,18.80
2023-01-19T02:46:15.638Z,17.08
2023-01-19T02:48:43.868Z,18.80
2023-01-19T02:51:13.363Z,20.17
2023-01-19T02:53:51.033Z,18.55
2023-01-19T02:56:40.606Z,18.23
2023-01-19T02:59:15.613Z,20.15
2023-01-19T03:01:53.051Z,20.75
2023-01-19T03:04:29.435Z,18.92
2023-01-19T03:07:01.726Z,19.55
2023-01-19T03:09:30.834Z,20.17
2023-01-19T03:12:03.423Z,20.17
2023-01-19T03:14:34.746Z,19.92
2023-01-19T03:17:04.395Z,20.50
2023-01-19T03:19:34.981Z,21.13
2023-01-19T03:22:04.870Z,20.45
2023-01-19T03:24:37.028Z,20.83
2023-01-19T03:27:07.866Z,20.58
2023-01-19T03:29:38.005Z,24.73
2023-01-19T03:32:09.128Z,21.08
2023-01-19T03:34:37.195Z,20.67
2023-01-19T03:37:06.072Z,23.58
2023-01-19T03:39:35.144Z,22.88
2023-01-19T03:42:04.153Z,23.70
2023-01-19T03:44:33.204Z,20.98
2023-01-19T03:47:04.153Z,19.98
2023-01-19T03:49:32.669Z,19.80
2023-01-19T03:52:00.694Z,21.30
2023-01-19T03:54:28.539Z,20.35
2023-01-19T03:56:56.312Z,21.42
2023-01-19T03:59:24.091Z,21.95
2023-01-19T04:01:51.922Z,21.95
2023-01-19T04:04:21.205Z,21.90
2023-01-19T04:06:49.327Z,21.92
2023-01-19T04:09:19.275Z,21.73
2023-01-19T04:11:47.800Z,19.85
2023-01-19T04:14:15.619Z,20.45
2023-01-19T04:16:43.390Z,21.90
2023-01-19T04:19:11.257Z,21.38
2023-01-19T04:21:40.453Z,20.25
2023-01-19T04:24:08.686Z,19.58
2023-01-19T04:26:36.545Z,19.85
2023-01-19T04:29:04.464Z,19.88
2023-01-19T04:31:32.965Z,19.40
2023-01-19T04:34:00.780Z,19.23
2023-01-19T04:36:28.676Z,19.10
2023-01-19T04:38:57.789Z,18.17
2023-01-19T04:41:25.549Z,17.13
2023-01-19T04:43:53.337Z,17.95
2023-01-19T04:46:21.040Z,17.92
2023-01-19T04:48:48.796Z,17.33
2023-01-19T04:51:16.537Z,17.17
2023-01-19T04:53:44.337Z,16.52
2023-01-19T04:56:13.452Z,18.42
2023-01-19T04:58:41.960Z,18.83
2023-01-19T05:01:10.147Z,17.42
2023-01-19T05:03:38.048Z,16.70
2023-01-19T05:06:06.200Z,17.17
2023-01-19T05:08:34.095Z,18.83
2023-01-19T05:11:01.994Z,17.52
2023-01-19T05:13:31.238Z,17.67
2023-01-19T05:15:59.009Z,16.83
2023-01-19T05:18:26.801Z,17.50
2023-01-19T05:20:54.611Z,17.27
2023-01-19T05:23:22.379Z,17.27
2023-01-19T05:25:50.183Z,17.48
2023-01-19T05:28:17.947Z,17.33
2023-01-19T05:30:47.075Z,17.90
2023-01-19T05:33:14.918Z,18.17
2023-01-19T05:35:42.640Z,18.30
2023-01-19T05:38:10.492Z,18.38
2023-01-19T05:40:38.343Z,19.02
2023-01-19T05:43:06.124Z,18.65
2023-01-19T05:45:34.062Z,19.88
2023-01-19T05:48:03.202Z,20.80
2023-01-19T05:50:31.093Z,21.10
2023-01-19T05:53:00.148Z,20.58
2023-01-19T05:55:28.688Z,22.08
2023-01-19T05:57:56.618Z,22.73
2023-01-19T06:00:24.951Z,23.05
2023-01-19T06:02:52.772Z,21.63
2023-01-19T06:05:22.049Z,23.27
2023-01-19T06:07:49.824Z,23.45
2023-01-19T06:10:17.959Z,22.98
2023-01-19T06:12:46.049Z,21.83
2023-01-19T06:15:14.443Z,22.80
2023-01-19T06:17:43.098Z,23.13
2023-01-19T06:20:11.356Z,22.52
2023-01-19T06:22:40.451Z,24.88
2023-01-19T06:25:08.508Z,24.98
2023-01-19T06:27:36.611Z,24.85
2023-01-19T06:30:04.662Z,24.75
2023-01-19T06:32:32.669Z,23.13
2023-01-19T06:35:00.514Z,24.02
2023-01-19T06:37:30.564Z,26.40
2023-01-19T06:39:59.677Z,30.15
2023-01-19T06:42:27.478Z,26.55
2023-01-19T06:44:55.557Z,24.13
2023-01-19T06:47:23.312Z,22.98
2023-01-19T06:49:51.733Z,19.45
2023-01-19T06:52:20.600Z,18.85
2023-01-19T06:54:48.446Z,20.05
2023-01-19T06:57:18.903Z,19.75
2023-01-19T06:59:46.803Z,20.52
2023-01-19T07:02:27.455Z,20.42
2023-01-19T07:04:55.972Z,20.63
2023-01-19T07:07:23.840Z,21.83
2023-01-19T07:09:53.995Z,21.45
2023-01-19T07:12:23.510Z,23.20
2023-01-19T07:14:51.758Z,23.70
2023-01-19T07:17:20.058Z,24.08
2023-01-19T07:19:47.999Z,21.65
2023-01-19T07:22:15.771Z,22.02
2023-01-19T07:24:44.002Z,24.92
2023-01-19T07:27:12.493Z,25.30
2023-01-19T07:29:42.134Z,21.85
2023-01-19T07:32:09.927Z,22.17
2023-01-19T07:34:37.879Z,22.23
2023-01-19T07:37:05.696Z,21.30
2023-01-19T07:39:33.450Z,23.27
2023-01-19T07:42:01.311Z,21.05
2023-01-19T07:44:29.526Z,21.45
2023-01-19T07:46:58.660Z,22.40
2023-01-19T07:49:28.066Z,20.67
2023-01-19T07:51:56.342Z,21.92
2023-01-19T07:54:24.461Z,20.52
2023-01-19T07:56:54.396Z,20.63
2023-01-19T07:59:22.458Z,22.52
2023-01-19T08:01:52.261Z,21.10
2023-01-19T08:04:21.458Z,22.15
2023-01-19T08:06:49.709Z,22.00
2023-01-19T08:09:18.018Z,21.15
2023-01-19T08:11:45.833Z,19.88
2023-01-19T08:14:13.671Z,20.58
2023-01-19T08:16:41.410Z,17.98
2023-01-19T08:19:09.404Z,18.40
2023-01-19T08:21:38.998Z,18.10
2023-01-19T08:24:07.176Z,18.02
2023-01-19T08:26:36.244Z,16.08
2023-01-19T08:29:05.336Z,16.23
2023-01-19T08:31:33.448Z,17.83
2023-01-19T08:34:01.566Z,16.13
2023-01-19T08:36:29.349Z,17.08
2023-01-19T08:38:58.465Z,16.30
2023-01-19T08:41:26.385Z,17.15
2023-01-19T08:43:54.151Z,16.38
2023-01-19T08:46:22.029Z,17.45
2023-01-19T08:48:50.495Z,16.92
2023-01-19T08:51:18.393Z,17.60
2023-01-19T08:53:46.245Z,17.08
2023-01-19T08:56:15.809Z,15.20
2023-01-19T08:58:44.098Z,16.30
2023-01-19T09:01:13.887Z,15.25
2023-01-19T09:03:41.909Z,16.13
2023-01-19T09:06:10.085Z,16.42
2023-01-19T09:08:38.499Z,14.25
2023-01-19T09:11:11.172Z,14.30
2023-01-19T09:13:41.358Z,15.20
2023-01-19T09:16:11.491Z,14.23
2023-01-19T09:18:39.464Z,14.88
2023-01-19T09:21:08.296Z,14.43
2023-01-19T09:23:36.578Z,14.57
2023-01-19T09:26:05.176Z,14.05
2023-01-19T09:28:33.551Z,13.65
2023-01-19T09:31:06.845Z,13.95
2023-01-19T09:33:34.975Z,14.82
2023-01-19T09:36:03.076Z,13.00
2023-01-19T09:38:32.986Z,13.88
2023-01-19T09:41:01.084Z,14.05
2023-01-19T09:43:36.815Z,13.38
2023-01-19T09:46:07.777Z,13.73
2023-01-19T09:48:43.767Z,13.85
2023-01-19T09:51:13.659Z,12.88
2023-01-19T09:53:50.831Z,12.13
2023-01-19T09:56:19.991Z,14.20
2023-01-19T09:58:48.400Z,11.18
2023-01-19T10:01:24.217Z,12.80
2023-01-19T10:03:56.091Z,12.10
2023-01-19T10:06:23.881Z,12.88
2023-01-19T10:08:56.731Z,12.55
2023-01-19T10:11:38.123Z,12.07
2023-01-19T10:14:18.537Z,13.13
2023-01-19T10:16:52.109Z,12.68
2023-01-19T10:19:23.749Z,12.73
2023-01-19T10:21:52.559Z,12.05
2023-01-19T10:24:24.646Z,12.25
2023-01-19T10:26:53.844Z,10.68
2023-01-19T10:29:23.387Z,10.90
2023-01-19T10:31:53.352Z,11.00
2023-01-19T10:34:23.642Z,10.85
2023-01-19T10:36:53.824Z,10.45
2023-01-19T10:39:21.622Z,10.23
2023-01-19T10:41:51.349Z,10.45
2023-01-19T10:44:24.381Z,9.90
2023-01-19T10:46:54.485Z,9.30
2023-01-19T10:49:27.462Z,10.35
2023-01-19T10:51:57.531Z,9.93
2023-01-19T10:54:26.493Z,10.57
2023-01-19T10:56:55.250Z,9.93
2023-01-19T10:59:33.492Z,9.77
2023-01-19T11:02:14.413Z,8.70
2023-01-19T11:04:42.734Z,10.00
2023-01-19T11:07:15.079Z,9.10
2023-01-19T11:09:42.857Z,9.70
2023-01-19T11:12:17.303Z,9.70
2023-01-19T11:14:45.439Z,9.50
2023-01-19T11:17:20.236Z,8.45
2023-01-19T11:19:53.840Z,8.25
2023-01-19T11:22:23.068Z,8.80
2023-01-19T11:24:50.899Z,8.07
2023-01-19T11:27:18.868Z,8.60
2023-01-19T11:29:50.238Z,9.75
2023-01-19T11:32:23.574Z,9.02
2023-01-19T11:34:51.594Z,8.70
2023-01-19T11:37:34.502Z,6.40
2023-01-19T11:40:04.276Z,6.93
2023-01-19T11:42:34.294Z,5.88
2023-01-19T11:45:07.242Z,5.32
2023-01-19T11:47:40.436Z,6.18
2023-01-19T11:50:14.511Z,5.20
2023-01-19T11:52:44.124Z,12.93
2023-01-19T11:55:17.581Z,5.82
2023-01-19T11:57:46.688Z,6.93
2023-01-19T12:00:23.355Z,7.13
2023-01-19T12:02:54.274Z,10.05
2023-01-19T12:05:23.687Z,7.47
2023-01-19T12:07:54.400Z,6.47
2023-01-19T12:10:25.547Z,6.63
2023-01-19T12:12:53.707Z,5.82
2023-01-19T12:15:31.566Z,6.90
2023-01-19T12:18:02.076Z,7.10
2023-01-19T12:20:31.951Z,6.57
2023-01-19T12:23:05.517Z,6.63
2023-01-19T12:25:36.834Z,5.50
2023-01-19T12:28:04.896Z,6.65
2023-01-19T12:30:32.870Z,6.25
2023-01-19T12:33:15.518Z,6.22
2023-01-19T12:35:57.995Z,6.97
2023-01-19T12:38:34.719Z,10.20
2023-01-19T12:41:26.997Z,6.57
2023-01-19T12:44:14.582Z,8.32
2023-01-19T12:46:43.147Z,7.85
2023-01-19T12:49:15.640Z,8.02
2023-01-19T12:51:45.740Z,11.80
2023-01-19T12:54:21.257Z,8.30
2023-01-19T12:56:49.471Z,11.20
2023-01-19T12:59:24.728Z,9.48
2023-01-19T13:02:07.524Z,11.77
2023-01-19T13:04:35.534Z,7.47
2023-01-19T13:07:13.642Z,7.45
2023-01-19T13:09:43.196Z,7.60
2023-01-19T13:12:24.318Z,10.52
2023-01-19T13:14:52.130Z,7.30
2023-01-19T13:17:24.169Z,7.60
2023-01-19T13:19:54.682Z,7.10
2023-01-19T13:22:40.847Z,7.65
2023-01-19T13:25:12.276Z,7.93
2023-01-19T13:27:40.380Z,8.48
2023-01-19T13:30:12.459Z,7.32
2023-01-19T13:32:42.048Z,7.55
2023-01-19T13:35:14.592Z,8.30
2023-01-19T13:37:44.486Z,8.10
2023-01-19T13:40:20.491Z,8.32
2023-01-19T13:42:49.053Z,7.82
2023-01-19T13:45:19.309Z,9.70
2023-01-19T13:47:49.016Z,9.90
2023-01-19T13:50:21.254Z,10.10
2023-01-19T13:52:51.410Z,10.68
2023-01-19T13:55:20.851Z,8.60
2023-01-19T13:57:49.573Z,11.27
2023-01-19T14:00:19.412Z,11.57
2023-01-19T14:02:54.361Z,11.07
2023-01-19T14:05:23.809Z,9.43
2023-01-19T14:08:00.646Z,11.63
2023-01-19T14:10:31.364Z,11.95
2023-01-19T14:12:59.937Z,8.95
2023-01-19T14:15:27.866Z,8.20
2023-01-19T14:18:14.331Z,8.10
2023-01-19T14:20:42.250Z,7.45
2023-01-19T14:23:25.273Z,8.30
2023-01-19T14:25:54.421Z,6.25
2023-01-19T14:28:29.321Z,7.07
2023-01-19T14:30:57.818Z,6.90
2023-01-19T14:33:35.641Z,6.88
2023-01-19T14:36:10.261Z,7.40
2023-01-19T14:38:39.484Z,8.05
2023-01-19T14:41:08.831Z,6.90
2023-01-19T14:43:36.634Z,6.35
2023-01-19T14:46:05.111Z,9.15
2023-01-19T14:48:32.876Z,5.57
2023-01-19T14:51:03.465Z,6.28
2023-01-19T14:53:39.404Z,6.38
2023-01-19T14:56:08.605Z,7.18
2023-01-19T14:58:36.683Z,7.38
2023-01-19T15:01:06.674Z,8.40
2023-01-19T15:03:49.315Z,7.97
2023-01-19T15:06:18.207Z,8.07
2023-01-19T15:08:46.439Z,7.32
2023-01-19T15:11:19.960Z,7.47
2023-01-19T15:13:48.032Z,5.63
2023-01-19T15:16:16.095Z,6.53
2023-01-19T15:18:43.965Z,6.82
2023-01-19T15:21:13.853Z,7.63
2023-01-19T15:23:41.823Z,7.72
2023-01-19T15:26:13.137Z,7.97
2023-01-19T15:28:42.265Z,7.53
2023-01-19T15:31:12.921Z,7.32
2023-01-19T15:33:40.770Z,7.53
2023-01-19T15:36:12.671Z,8.38
2023-01-19T15:38:40.859Z,10.88
2023-01-19T15:41:14.750Z,10.25
2023-01-19T15:43:43.875Z,10.02
2023-01-19T15:46:15.496Z,9.40
2023-01-19T15:48:43.336Z,9.10
2023-01-19T15:51:12.660Z,9.75
2023-01-19T15:53:40.958Z,9.80
2023-01-19T15:56:12.972Z,8.45
2023-01-19T15:58:40.771Z,7.85
2023-01-19T16:01:12.837Z,9.02
2023-01-19T16:03:40.766Z,10.65
2023-01-19T16:06:08.643Z,9.82
2023-01-19T16:08:36.657Z,10.05
2023-01-19T16:11:05.230Z,11.85
2023-01-19T16:13:33.014Z,10.60
2023-01-19T16:16:04.550Z,9.25
2023-01-19T16:18:34.203Z,9.32
2023-01-19T16:21:02.196Z,8.43
2023-01-19T16:23:30.119Z,9.98
2023-01-19T16:25:59.112Z,10.52
2023-01-19T16:28:27.450Z,10.70
2023-01-19T16:30:55.214Z,10.50
2023-01-19T16:33:24.165Z,10.65
2023-01-19T16:35:53.519Z,9.85
2023-01-19T16:38:22.757Z,10.48
2023-01-19T16:40:50.678Z,10.23
2023-01-19T16:43:18.637Z,12.43
2023-01-19T16:45:59.676Z,14.73
2023-01-19T16:48:27.935Z,21.58
2023-01-19T16:51:00.745Z,21.52
2023-01-19T16:53:28.672Z,23.50
2023-01-19T16:55:56.555Z,15.85
2023-01-19T16:58:24.413Z,14.02
2023-01-19T17:00:52.320Z,14.98
2023-01-19T17:03:20.152Z,20.52
2023-01-19T17:05:51.381Z,15.18
2023-01-19T17:08:20.833Z,19.55
2023-01-19T17:10:48.963Z,16.92
2023-01-19T17:13:17.490Z,13.98
2023-01-19T17:15:45.323Z,15.30
2023-01-19T17:18:13.325Z,14.95
2023-01-19T17:20:41.059Z,11.43
2023-01-19T17:23:09.357Z,16.95
2023-01-19T17:25:38.806Z,19.02
2023-01-19T17:28:08.255Z,20.85
2023-01-19T17:30:36.328Z,15.95
2023-01-19T17:33:04.446Z,17.00
2023-01-19T17:35:34.799Z,16.90
2023-01-19T17:38:02.795Z,14.32
2023-01-19T17:40:31.090Z,14.75
2023-01-19T17:43:00.770Z,14.88
2023-01-19T17:45:28.526Z,15.57
2023-01-19T17:47:56.612Z,15.80
2023-01-19T17:50:24.342Z,17.10
2023-01-19T17:52:52.802Z,18.25
2023-01-19T17:55:20.951Z,20.85
2023-01-19T17:57:48.939Z,19.50
2023-01-19T18:00:18.791Z,20.13
2023-01-19T18:02:49.841Z,18.85
2023-01-19T18:05:17.640Z,18.17
2023-01-19T18:07:45.374Z,16.75
2023-01-19T18:10:13.329Z,15.88
2023-01-19T18:12:41.250Z,15.88
2023-01-19T18:15:10.147Z,10.85
2023-01-19T18:17:39.468Z,11.05
2023-01-19T18:20:08.000Z,11.25
2023-01-19T18:22:36.113Z,10.75
2023-01-19T18:25:04.130Z,11.60
2023-01-19T18:27:31.907Z,12.38
2023-01-19T18:29:59.953Z,14.60
2023-01-19T18:32:27.719Z,16.63
2023-01-19T18:34:57.699Z,16.50
2023-01-19T18:37:25.783Z,13.65
2023-01-19T18:39:55.995Z,14.40
2023-01-19T18:42:24.029Z,14.27
2023-01-19T18:44:52.013Z,18.25
2023-01-19T18:47:20.676Z,16.58
2023-01-19T18:49:48.760Z,14.35
2023-01-19T18:52:18.099Z,14.70
2023-01-19T18:54:45.915Z,22.90
2023-01-19T18:57:13.650Z,28.58
2023-01-19T18:59:42.598Z,16.63
2023-01-19T19:02:12.843Z,18.63
2023-01-19T19:04:40.792Z,19.38
2023-01-19T19:07:08.797Z,20.90
2023-01-19T19:09:37.895Z,20.35
2023-01-19T19:12:06.210Z,15.75
2023-01-19T19:14:34.176Z,16.50
2023-01-19T19:17:02.274Z,16.15
2023-01-19T19:19:30.079Z,15.77
2023-01-19T19:21:57.858Z,15.93
2023-01-19T19:24:25.903Z,27.42
2023-01-19T19:26:55.115Z,18.15
2023-01-19T19:29:22.880Z,14.13
2023-01-19T19:31:50.924Z,13.55
2023-01-19T19:34:18.947Z,14.80
2023-01-19T19:36:47.152Z,14.05
2023-01-19T19:39:14.861Z,14.00
2023-01-19T19:41:42.858Z,13.60
2023-01-19T19:44:12.978Z,13.00
2023-01-19T19:46:41.364Z,13.05
2023-01-19T19:49:09.174Z,13.02
2023-01-19T19:51:37.200Z,14.13
2023-01-19T19:54:05.738Z,13.50
2023-01-19T19:56:34.361Z,15.23
2023-01-19T19:59:02.491Z,15.40
2023-01-19T20:01:33.393Z,14.85
2023-01-19T20:04:06.185Z,14.85
2023-01-19T20:06:38.596Z,16.60
2023-01-19T20:09:07.492Z,15.18
2023-01-19T20:11:35.688Z,15.63
2023-01-19T20:14:05.435Z,15.40
2023-01-19T20:16:34.887Z,13.90
2023-01-19T20:19:03.327Z,13.77
2023-01-19T20:21:32.557Z,13.25
2023-01-19T20:24:01.672Z,12.65
2023-01-19T20:26:31.749Z,15.45
2023-01-19T20:29:00.717Z,19.83
2023-01-19T20:31:29.730Z,15.13
2023-01-19T20:33:59.776Z,11.88
2023-01-19T20:36:28.914Z,10.95
2023-01-19T20:38:57.557Z,11.43
2023-01-19T20:41:25.957Z,12.55
2023-01-19T20:43:54.099Z,15.50
2023-01-19T20:46:21.856Z,11.63
2023-01-19T20:48:52.983Z,12.55
2023-01-19T20:51:23.076Z,13.25
2023-01-19T20:53:51.069Z,15.85
2023-01-19T20:56:18.947Z,16.98
2023-01-19T20:58:46.911Z,15.98
2023-01-19T21:01:16.011Z,25.77
2023-01-19T21:03:44.222Z,13.90
2023-01-19T21:06:12.853Z,14.60
2023-01-19T21:08:42.329Z,13.43
2023-01-19T21:11:10.741Z,13.75
2023-01-19T21:13:38.817Z,14.90
2023-01-19T21:16:07.181Z,14.73
2023-01-19T21:18:36.583Z,14.25
2023-01-19T21:21:04.365Z,14.13
2023-01-19T21:23:32.147Z,14.98
2023-01-19T21:26:01.887Z,14.50
2023-01-19T21:28:29.820Z,13.85
2023-01-19T21:30:57.665Z,13.77
2023-01-19T21:33:25.735Z,12.88
2023-01-19T21:35:54.593Z,13.55
2023-01-19T21:38:22.998Z,12.27
2023-01-19T21:40:51.243Z,13.30
2023-01-19T21:43:20.621Z,12.77
2023-01-19T21:45:49.434Z,13.20
2023-01-19T21:48:17.353Z,13.57
2023-01-19T21:50:45.112Z,11.35
2023-01-19T21:53:13.031Z,12.32
2023-01-19T21:55:44.207Z,13.05
2023-01-19T21:58:12.022Z,14.07
2023-01-19T22:00:42.018Z,12.70
2023-01-19T22:03:09.863Z,12.70
2023-01-19T22:05:37.877Z,15.20
2023-01-19T22:08:06.283Z,15.38
2023-01-19T22:10:36.266Z,16.23
2023-01-19T22:13:06.635Z,16.63
2023-01-19T22:15:34.486Z,31.70
2023-01-19T22:18:03.740Z,18.50
2023-01-19T22:20:31.578Z,16.23
2023-01-19T22:23:14.823Z,14.75
2023-01-19T22:25:42.640Z,13.45
2023-01-19T22:28:10.400Z,12.85
2023-01-19T22:30:38.428Z,13.45
2023-01-19T22:33:08.007Z,13.48
2023-01-19T22:35:35.806Z,14.02
2023-01-19T22:38:03.618Z,14.00
2023-01-19T22:40:31.374Z,14.50
2023-01-19T22:42:59.135Z,13.10
2023-01-19T22:45:27.188Z,12.35
2023-01-19T22:47:54.935Z,11.32
2023-01-19T22:50:24.016Z,11.70
2023-01-19T22:52:55.618Z,11.52
2023-01-19T22:55:23.597Z,11.88
2023-01-19T22:57:51.599Z,11.93
2023-01-19T23:00:20.477Z,11.98
2023-01-19T23:02:48.251Z,11.65
2023-01-19T23:05:16.354Z,11.90
2023-01-19T23:07:45.688Z,12.40
2023-01-19T23:10:13.413Z,11.75
2023-01-19T23:12:41.158Z,11.32
2023-01-19T23:15:09.871Z,12.32
2023-01-19T23:17:37.970Z,12.65
2023-01-19T23:20:06.293Z,14.23
2023-01-19T23:22:34.077Z,13.85
2023-01-19T23:25:03.587Z,13.23
2023-01-19T23:27:31.664Z,14.35
2023-01-19T23:29:59.483Z,14.07
2023-01-19T23:32:27.296Z,13.93
2023-01-19T23:34:55.050Z,13.70
2023-01-19T23:37:22.763Z,14.27
2023-01-19T23:39:50.625Z,17.40
2023-01-19T23:42:19.719Z,13.68
2023-01-19T23:44:47.478Z,14.77
2023-01-19T23:47:15.296Z,14.60
2023-01-19T23:49:43.284Z,13.35
2023-01-19T23:52:11.126Z,13.95
2023-01-19T23:54:38.938Z,15.05
2023-01-19T23:57:06.701Z,13.68
2023-01-19T23:59:35.840Z,15.45
